createdAt,value
2018-03-17T00:00:59.745Z,65.40
2018-03-17T00:03:25.931Z,65.40
2018-03-17T00:05:52.119Z,65.10
2018-03-17T00:08:18.341Z,65.00
2018-03-17T00:10:44.588Z,66.00
2018-03-17T00:13:10.799Z,65.40
2018-03-17T00:15:37.027Z,64.70
2018-03-17T00:18:03.272Z,64.40
2018-03-17T00:20:29.435Z,64.40
2018-03-17T00:22:56.375Z,65.40
2018-03-17T00:25:23.340Z,65.50
2018-03-17T00:27:49.513Z,65.40
2018-03-17T00:30:15.769Z,65.40
2018-03-17T00:32:42.008Z,65.30
2018-03-17T00:35:08.944Z,65.30
2018-03-17T00:37:35.212Z,65.30
2018-03-17T00:40:01.423Z,66.30
2018-03-17T00:42:28.413Z,65.40
2018-03-17T00:44:54.676Z,65.40
2018-03-17T00:47:20.872Z,65.50
2018-03-17T00:49:47.097Z,65.80
2018-03-17T00:52:13.300Z,65.90
2018-03-17T00:54:39.532Z,65.90
2018-03-17T00:57:05.808Z,66.60
2018-03-17T00:59:31.976Z,67.20
2018-03-17T01:01:58.196Z,67.70
2018-03-17T01:04:24.485Z,68.40
2018-03-17T01:06:50.690Z,68.00
2018-03-17T01:09:16.884Z,68.10
2018-03-17T01:11:43.104Z,67.40
2018-03-17T01:14:09.328Z,66.40
2018-03-17T01:16:36.305Z,66.30
2018-03-17T01:19:02.541Z,66.30
2018-03-17T01:21:28.752Z,67.00
2018-03-17T01:23:54.930Z,67.30
2018-03-17T01:26:21.093Z,67.40
2018-03-17T01:28:47.313Z,67.10
2018-03-17T01:31:14.249Z,67.20
2018-03-17T01:33:41.234Z,66.80
2018-03-17T01:36:07.450Z,66.80
2018-03-17T01:38:33.694Z,66.70
2018-03-17T01:41:00.021Z,66.60
2018-03-17T01:43:26.221Z,66.30
2018-03-17T01:45:52.452Z,66.80
2018-03-17T01:48:18.708Z,66.90
2018-03-17T01:50:44.929Z,67.40
2018-03-17T01:53:11.122Z,68.10
2018-03-17T01:55:37.365Z,68.30
2018-03-17T01:58:03.661Z,68.50
2018-03-17T02:00:29.878Z,68.30
2018-03-17T02:02:56.056Z,67.70
2018-03-17T02:05:22.277Z,67.50
2018-03-17T02:07:48.567Z,67.40
2018-03-17T02:10:14.888Z,68.00
2018-03-17T02:12:41.069Z,68.60
2018-03-17T02:15:07.369Z,69.00
2018-03-17T02:17:34.335Z,69.10
2018-03-17T02:20:00.554Z,69.00
2018-03-17T02:22:27.563Z,69.80
2018-03-17T02:24:53.777Z,69.70
2018-03-17T02:27:20.008Z,70.00
2018-03-17T02:29:46.252Z,70.60
2018-03-17T02:32:12.460Z,70.80
2018-03-17T02:34:38.669Z,71.10
2018-03-17T02:37:04.920Z,71.20
2018-03-17T02:39:31.120Z,71.20
2018-03-17T02:41:57.325Z,70.90
2018-03-17T02:44:24.330Z,71.90
2018-03-17T02:46:50.548Z,71.70
2018-03-17T02:49:16.793Z,72.60
2018-03-17T02:51:42.979Z,74.00
2018-03-17T02:54:09.181Z,73.70
2018-03-17T02:56:36.161Z,75.20
2018-03-17T02:59:02.450Z,75.20
2018-03-17T03:01:29.441Z,76.00
2018-03-17T03:03:55.645Z,76.00
2018-03-17T03:06:21.870Z,75.50
2018-03-17T03:08:48.084Z,74.50
2018-03-17T03:11:14.322Z,74.40
2018-03-17T03:13:40.535Z,73.80
2018-03-17T03:16:07.528Z,74.20
2018-03-17T03:18:33.748Z,74.10
2018-03-17T03:21:00.000Z,74.30
2018-03-17T03:23:26.240Z,74.40
2018-03-17T03:25:52.433Z,74.50
2018-03-17T03:28:18.690Z,75.10
2018-03-17T03:30:44.867Z,74.40
2018-03-17T03:33:11.086Z,74.40
2018-03-17T03:35:38.084Z,74.30
2018-03-17T03:38:04.278Z,74.10
2018-03-17T03:40:30.479Z,74.40
2018-03-17T03:42:57.464Z,74.70
2018-03-17T03:45:23.724Z,74.70
2018-03-17T03:47:49.938Z,74.10
2018-03-17T03:50:16.162Z,74.50
2018-03-17T03:52:42.370Z,74.50
2018-03-17T03:55:08.612Z,74.50
2018-03-17T03:57:34.819Z,74.50
2018-03-17T04:00:01.038Z,76.20
2018-03-17T04:02:27.252Z,75.80
2018-03-17T04:04:54.214Z,76.00
2018-03-17T04:07:20.439Z,75.80
2018-03-17T04:09:46.649Z,75.70
2018-03-17T04:12:13.630Z,75.30
2018-03-17T04:14:39.823Z,75.30
2018-03-17T04:17:06.756Z,76.00
2018-03-17T04:19:32.953Z,75.90
2018-03-17T04:21:59.197Z,75.70
2018-03-17T04:24:25.430Z,75.30
2018-03-17T04:26:51.662Z,75.40
2018-03-17T04:29:17.926Z,75.50
2018-03-17T04:31:44.100Z,75.40
2018-03-17T04:34:10.343Z,75.40
2018-03-17T04:36:36.518Z,76.30
2018-03-17T04:39:02.785Z,75.80
2018-03-17T04:41:28.944Z,75.60
2018-03-17T04:43:55.871Z,74.10
2018-03-17T04:46:22.851Z,74.80
2018-03-17T04:48:49.058Z,74.40
2018-03-17T04:51:15.242Z,74.70
2018-03-17T04:53:41.445Z,73.90
2018-03-17T04:56:07.817Z,75.00
2018-03-17T04:58:34.016Z,75.20
2018-03-17T05:01:00.229Z,75.40
2018-03-17T05:03:26.466Z,75.60
2018-03-17T05:05:52.702Z,75.90
2018-03-17T05:08:18.905Z,76.00
2018-03-17T05:10:45.132Z,76.50
2018-03-17T05:13:11.364Z,76.90
2018-03-17T05:15:37.633Z,77.40
2018-03-17T05:18:03.839Z,77.70
2018-03-17T05:20:30.051Z,78.20
2018-03-17T05:22:56.224Z,78.50
2018-03-17T05:25:22.418Z,78.80
2018-03-17T05:27:48.688Z,79.20
2018-03-17T05:30:14.892Z,79.20
2018-03-17T05:32:41.134Z,79.20
2018-03-17T05:35:07.353Z,79.10
2018-03-17T05:37:33.612Z,79.10
2018-03-17T05:39:59.795Z,79.10
2018-03-17T05:42:26.032Z,78.50
2018-03-17T05:44:52.265Z,78.40
2018-03-17T05:47:18.481Z,78.00
2018-03-17T05:49:44.708Z,78.00
2018-03-17T05:52:10.878Z,78.00
2018-03-17T05:54:37.077Z,78.10
2018-03-17T05:57:03.307Z,78.20
2018-03-17T05:59:29.504Z,78.00
2018-03-17T06:01:55.737Z,78.20
2018-03-17T06:04:22.667Z,78.70
2018-03-17T06:06:48.910Z,78.50
2018-03-17T06:09:15.117Z,78.90
2018-03-17T06:11:41.308Z,78.90
2018-03-17T06:14:07.581Z,78.80
2018-03-17T06:16:34.509Z,78.70
2018-03-17T06:19:01.454Z,78.90
2018-03-17T06:21:27.662Z,78.90
2018-03-17T06:23:54.665Z,78.60
2018-03-17T06:26:20.880Z,78.60
2018-03-17T06:28:47.162Z,78.50
2018-03-17T06:31:13.456Z,78.20
2018-03-17T06:33:39.681Z,78.70
2018-03-17T06:36:05.916Z,78.30
2018-03-17T06:38:32.155Z,78.30
2018-03-17T06:40:58.389Z,78.20
2018-03-17T06:43:24.596Z,78.30
2018-03-17T06:45:50.811Z,78.60
2018-03-17T06:48:17.051Z,78.20
2018-03-17T06:50:43.308Z,78.30
2018-03-17T06:53:09.575Z,78.40
2018-03-17T06:55:35.757Z,78.10
2018-03-17T06:58:01.976Z,78.10
2018-03-17T07:00:28.179Z,78.20
2018-03-17T07:02:54.437Z,77.50
2018-03-17T07:05:20.635Z,77.70
2018-03-17T07:07:46.848Z,77.70
2018-03-17T07:10:13.123Z,77.70
2018-03-17T07:12:39.353Z,78.10
2018-03-17T07:15:05.652Z,77.80
2018-03-17T07:17:31.846Z,77.50
2018-03-17T07:19:58.821Z,77.60
2018-03-17T07:22:25.075Z,77.50
2018-03-17T07:24:51.307Z,77.50
2018-03-17T07:27:17.487Z,77.50
2018-03-17T07:29:43.725Z,77.20
2018-03-17T07:32:09.931Z,77.10
2018-03-17T07:34:36.955Z,77.40
2018-03-17T07:37:03.238Z,77.30
2018-03-17T07:39:29.473Z,77.40
2018-03-17T07:41:55.681Z,77.00
2018-03-17T07:44:21.930Z,77.50
2018-03-17T07:46:48.181Z,77.40
2018-03-17T07:49:14.461Z,77.30
2018-03-17T07:51:40.706Z,77.30
2018-03-17T07:54:06.926Z,77.30
2018-03-17T07:56:33.204Z,77.10
2018-03-17T07:58:59.417Z,77.00
2018-03-17T08:01:25.640Z,77.10
2018-03-17T08:03:51.893Z,77.40
2018-03-17T08:06:18.221Z,77.30
2018-03-17T08:08:44.454Z,77.80
2018-03-17T08:11:10.784Z,77.30
2018-03-17T08:13:37.027Z,77.50
2018-03-17T08:16:04.010Z,77.40
2018-03-17T08:18:30.293Z,77.50
2018-03-17T08:20:56.502Z,77.30
2018-03-17T08:23:22.691Z,77.00
2018-03-17T08:25:48.913Z,76.70
2018-03-17T08:28:15.149Z,76.70
2018-03-17T08:30:41.416Z,76.40
2018-03-17T08:33:07.605Z,77.20
2018-03-17T08:35:33.799Z,76.30
2018-03-17T08:38:00.772Z,76.80
2018-03-17T08:40:26.997Z,76.80
2018-03-17T08:42:53.191Z,75.70
2018-03-17T08:45:19.428Z,75.30
2018-03-17T08:47:46.438Z,76.80
2018-03-17T08:50:12.666Z,76.70
2018-03-17T08:52:38.902Z,76.20
2018-03-17T08:55:05.163Z,77.20
2018-03-17T08:57:31.394Z,77.20
2018-03-17T08:59:58.342Z,76.60
2018-03-17T09:02:24.585Z,76.60
2018-03-17T09:04:50.802Z,75.50
2018-03-17T09:07:17.072Z,75.30
2018-03-17T09:09:43.510Z,75.80
2018-03-17T09:12:09.741Z,75.20
2018-03-17T09:14:35.998Z,75.20
2018-03-17T09:17:03.038Z,75.30
2018-03-17T09:19:29.337Z,75.20
2018-03-17T09:21:55.570Z,75.40
2018-03-17T09:24:21.924Z,76.00
2018-03-17T09:26:48.082Z,76.40
2018-03-17T09:29:14.284Z,74.40
2018-03-17T09:31:40.507Z,74.20
2018-03-17T09:34:06.745Z,74.40
2018-03-17T09:36:34.758Z,74.80
2018-03-17T09:39:00.984Z,74.80
2018-03-17T09:41:27.266Z,74.00
2018-03-17T09:43:53.464Z,75.00
2018-03-17T09:46:19.701Z,74.30
2018-03-17T09:48:45.964Z,73.70
2018-03-17T09:51:12.909Z,73.60
2018-03-17T09:53:39.893Z,74.40
2018-03-17T09:56:06.183Z,74.40
2018-03-17T09:58:32.400Z,74.40
2018-03-17T10:00:59.388Z,73.90
2018-03-17T10:03:25.632Z,73.80
2018-03-17T10:05:51.849Z,73.10
2018-03-17T10:08:18.121Z,72.90
2018-03-17T10:10:44.374Z,73.60
2018-03-17T10:13:11.292Z,73.90
2018-03-17T10:15:37.653Z,73.90
2018-03-17T10:18:03.882Z,73.70
2018-03-17T10:20:30.872Z,72.70
2018-03-17T10:22:57.089Z,72.70
2018-03-17T10:25:23.340Z,71.70
2018-03-17T10:27:49.574Z,71.40
2018-03-17T10:30:15.831Z,71.60
2018-03-17T10:32:42.079Z,72.00
2018-03-17T10:35:08.324Z,72.10
2018-03-17T10:37:34.556Z,71.90
2018-03-17T10:40:00.758Z,71.60
2018-03-17T10:42:27.013Z,70.90
2018-03-17T10:44:53.272Z,71.40
2018-03-17T10:47:19.526Z,72.20
2018-03-17T10:49:46.472Z,72.10
2018-03-17T10:52:12.728Z,72.10
2018-03-17T10:54:38.977Z,71.70
2018-03-17T10:57:13.289Z,71.70
2018-03-17T10:59:39.638Z,71.90
2018-03-17T11:02:05.916Z,70.20
2018-03-17T11:04:32.151Z,71.60
2018-03-17T11:06:58.414Z,71.70
2018-03-17T11:09:25.509Z,70.70
2018-03-17T11:11:52.464Z,70.20
2018-03-17T11:14:19.483Z,71.40
2018-03-17T11:16:46.533Z,71.40
2018-03-17T11:19:12.748Z,72.00
2018-03-17T11:21:39.172Z,71.00
2018-03-17T11:24:05.434Z,70.30
2018-03-17T11:26:32.355Z,71.80
2018-03-17T11:28:58.587Z,72.30
2018-03-17T11:31:24.838Z,69.80
2018-03-17T11:34:15.441Z,69.40
2018-03-17T11:36:43.508Z,69.70
2018-03-17T11:39:10.439Z,69.70
2018-03-17T11:41:44.504Z,69.70
2018-03-17T11:44:10.688Z,70.00
2018-03-17T11:46:36.909Z,69.10
2018-03-17T11:49:03.085Z,68.70
2018-03-17T11:51:29.284Z,69.90
2018-03-17T11:53:56.255Z,69.00
2018-03-17T11:56:22.441Z,69.00
2018-03-17T11:58:49.427Z,68.00
2018-03-17T12:01:15.704Z,67.70
2018-03-17T12:03:41.932Z,68.60
2018-03-17T12:06:08.200Z,67.40
2018-03-17T12:08:34.396Z,67.80
2018-03-17T12:11:00.600Z,68.60
2018-03-17T12:13:26.862Z,68.80
2018-03-17T12:15:53.434Z,69.20
2018-03-17T12:18:19.600Z,68.90
2018-03-17T12:20:45.843Z,68.00
2018-03-17T12:23:12.041Z,66.80
2018-03-17T12:25:38.296Z,66.70
2018-03-17T12:28:04.569Z,68.20
2018-03-17T12:30:30.798Z,69.40
2018-03-17T12:32:57.950Z,68.60
2018-03-17T12:35:24.185Z,68.90
2018-03-17T12:37:50.348Z,68.20
2018-03-17T12:40:16.628Z,67.50
2018-03-17T12:42:42.849Z,67.30
2018-03-17T12:45:09.772Z,68.80
2018-03-17T12:47:36.043Z,68.80
2018-03-17T12:50:02.277Z,67.00
2018-03-17T12:52:28.532Z,67.90
2018-03-17T12:54:54.741Z,68.20
2018-03-17T12:57:20.953Z,66.80
2018-03-17T12:59:47.150Z,67.20
2018-03-17T13:02:14.108Z,67.00
2018-03-17T13:04:40.321Z,67.00
2018-03-17T13:07:07.293Z,67.30
2018-03-17T13:09:33.532Z,67.30
2018-03-17T13:12:01.883Z,67.30
2018-03-17T13:14:28.089Z,67.30
2018-03-17T13:16:54.313Z,68.50
2018-03-17T13:19:29.687Z,66.70
2018-03-17T13:21:57.958Z,66.60
2018-03-17T13:24:24.161Z,66.30
2018-03-17T13:27:02.713Z,67.30
2018-03-17T13:29:28.888Z,66.70
2018-03-17T13:31:55.125Z,66.70
2018-03-17T13:34:21.314Z,67.30
2018-03-17T13:36:59.704Z,67.60
2018-03-17T13:39:25.888Z,67.30
2018-03-17T13:41:52.129Z,66.60
2018-03-17T13:44:19.161Z,66.40
2018-03-17T13:46:45.383Z,66.30
2018-03-17T13:49:11.633Z,66.80
2018-03-17T13:51:37.873Z,66.70
2018-03-17T13:54:04.117Z,67.30
2018-03-17T13:56:30.339Z,65.90
2018-03-17T13:58:57.310Z,67.10
2018-03-17T14:01:25.631Z,67.10
2018-03-17T14:03:51.907Z,65.60
2018-03-17T14:06:18.150Z,64.80
2018-03-17T14:08:44.404Z,65.50
2018-03-17T14:11:10.647Z,65.30
2018-03-17T14:13:36.888Z,65.10
2018-03-17T14:16:03.828Z,65.70
2018-03-17T14:18:30.061Z,65.70
2018-03-17T14:20:56.253Z,64.90
2018-03-17T14:23:22.482Z,65.30
2018-03-17T14:25:48.837Z,64.60
2018-03-17T14:28:15.065Z,65.50
2018-03-17T14:30:41.312Z,65.70
2018-03-17T14:33:08.265Z,65.10
2018-03-17T14:35:34.495Z,65.00
2018-03-17T14:38:01.436Z,65.20
2018-03-17T14:40:28.366Z,65.40
2018-03-17T14:42:54.573Z,65.40
2018-03-17T14:45:20.834Z,65.00
2018-03-17T14:47:47.772Z,65.80
2018-03-17T14:50:15.055Z,65.60
2018-03-17T14:52:41.302Z,65.40
2018-03-17T14:55:07.538Z,65.70
2018-03-17T14:57:33.760Z,65.30
2018-03-17T14:59:59.954Z,64.40
2018-03-17T15:02:26.135Z,65.90
2018-03-17T15:04:52.343Z,65.10
2018-03-17T15:07:18.548Z,64.90
2018-03-17T15:09:44.734Z,64.70
2018-03-17T15:12:10.956Z,64.20
2018-03-17T15:14:37.137Z,64.40
2018-03-17T15:17:03.376Z,64.30
2018-03-17T15:19:29.561Z,64.70
2018-03-17T15:21:56.547Z,64.50
2018-03-17T15:24:22.748Z,64.50
2018-03-17T15:26:49.019Z,64.80
2018-03-17T15:29:15.251Z,64.70
2018-03-17T15:31:41.483Z,65.00
2018-03-17T15:34:07.672Z,64.80
2018-03-17T15:36:33.863Z,64.70
2018-03-17T15:39:00.069Z,65.40
2018-03-17T15:41:26.287Z,65.30
2018-03-17T15:43:52.501Z,65.50
2018-03-17T15:46:18.735Z,65.30
2018-03-17T15:48:44.938Z,64.40
2018-03-17T15:51:11.122Z,64.50
2018-03-17T15:53:37.320Z,65.50
2018-03-17T15:56:03.548Z,65.10
2018-03-17T15:58:29.757Z,65.30
2018-03-17T16:00:55.984Z,65.20
2018-03-17T16:03:22.217Z,65.00
2018-03-17T16:05:48.456Z,65.40
2018-03-17T16:08:14.662Z,65.50
2018-03-17T16:10:40.916Z,66.10
2018-03-17T16:13:07.122Z,66.00
2018-03-17T16:15:33.329Z,65.90
2018-03-17T16:18:00.306Z,67.00
2018-03-17T16:20:26.516Z,66.90
2018-03-17T16:22:52.712Z,67.20
2018-03-17T16:25:19.678Z,66.20
2018-03-17T16:27:45.932Z,66.20
2018-03-17T16:30:12.182Z,67.00
2018-03-17T16:32:38.386Z,66.30
2018-03-17T16:35:04.596Z,66.30
2018-03-17T16:37:30.822Z,66.30
2018-03-17T16:39:57.057Z,66.80
2018-03-17T16:42:23.312Z,66.30
2018-03-17T16:44:49.552Z,66.20
2018-03-17T16:47:16.178Z,65.70
2018-03-17T16:49:42.409Z,66.30
2018-03-17T16:52:08.685Z,65.60
2018-03-17T16:54:34.960Z,66.90
2018-03-17T16:57:01.158Z,66.70
2018-03-17T16:59:27.389Z,66.80
2018-03-17T17:01:53.622Z,67.50
2018-03-17T17:04:19.826Z,66.90
2018-03-17T17:06:46.744Z,68.00
2018-03-17T17:09:12.949Z,67.90
2018-03-17T17:11:39.176Z,67.60
2018-03-17T17:14:05.402Z,67.50
2018-03-17T17:16:31.572Z,67.70
2018-03-17T17:18:58.550Z,67.80
2018-03-17T17:21:24.768Z,66.90
2018-03-17T17:23:50.920Z,67.60
2018-03-17T17:26:17.142Z,67.30
2018-03-17T17:28:43.402Z,67.30
2018-03-17T17:31:09.646Z,67.40
2018-03-17T17:33:35.852Z,67.40
2018-03-17T17:36:02.061Z,66.90
2018-03-17T17:38:28.284Z,66.30
2018-03-17T17:40:54.484Z,66.10
2018-03-17T17:43:21.399Z,66.30
2018-03-17T17:45:47.660Z,66.30
2018-03-17T17:48:14.584Z,65.90
2018-03-17T17:50:41.537Z,65.80
2018-03-17T17:53:07.786Z,66.30
2018-03-17T17:55:34.000Z,66.30
2018-03-17T17:58:00.942Z,65.90
2018-03-17T18:00:27.884Z,65.60
2018-03-17T18:02:54.842Z,65.90
2018-03-17T18:05:21.094Z,65.80
2018-03-17T18:07:47.315Z,66.30
2018-03-17T18:10:13.494Z,65.50
2018-03-17T18:12:39.701Z,65.30
2018-03-17T18:15:05.901Z,65.40
2018-03-17T18:17:32.053Z,65.30
2018-03-17T18:19:58.212Z,65.70
2018-03-17T18:22:24.419Z,65.10
2018-03-17T18:24:50.617Z,65.40
2018-03-17T18:27:16.865Z,66.20
2018-03-17T18:29:43.040Z,65.60
2018-03-17T18:32:10.004Z,64.60
2018-03-17T18:34:36.246Z,64.60
2018-03-17T18:37:02.444Z,65.10
2018-03-17T18:39:28.674Z,64.60
2018-03-17T18:41:54.872Z,64.60
2018-03-17T18:44:21.075Z,65.10
2018-03-17T18:46:47.292Z,65.10
2018-03-17T18:49:13.468Z,65.30
2018-03-17T18:51:39.716Z,65.70
2018-03-17T18:54:05.894Z,64.80
2018-03-17T18:56:32.147Z,64.70
2018-03-17T18:58:59.061Z,65.20
2018-03-17T19:01:25.257Z,65.20
2018-03-17T19:03:51.559Z,64.90
2018-03-17T19:06:18.509Z,65.10
2018-03-17T19:08:45.439Z,65.10
2018-03-17T19:11:12.372Z,65.10
2018-03-17T19:13:38.590Z,65.00
2018-03-17T19:16:04.859Z,64.40
2018-03-17T19:18:31.077Z,64.50
2018-03-17T19:20:58.048Z,64.10
2018-03-17T19:23:24.281Z,64.10
2018-03-17T19:25:50.541Z,64.00
2018-03-17T19:28:16.720Z,64.10
2018-03-17T19:30:42.913Z,64.40
2018-03-17T19:33:09.122Z,64.40
2018-03-17T19:35:35.374Z,64.20
2018-03-17T19:38:01.588Z,64.20
2018-03-17T19:40:27.821Z,64.80
2018-03-17T19:42:54.033Z,63.90
2018-03-17T19:45:20.265Z,63.60
2018-03-17T19:47:46.477Z,63.90
2018-03-17T19:50:12.678Z,63.90
2018-03-17T19:52:38.917Z,63.50
2018-03-17T19:55:05.171Z,63.00
2018-03-17T19:57:31.381Z,63.30
2018-03-17T19:59:57.628Z,63.30
2018-03-17T20:02:23.863Z,63.50
2018-03-17T20:04:50.080Z,63.50
2018-03-17T20:07:16.410Z,63.70
2018-03-17T20:09:42.643Z,64.50
2018-03-17T20:12:08.868Z,64.50
2018-03-17T20:14:35.174Z,64.20
2018-03-17T20:17:01.408Z,64.50
2018-03-17T20:19:27.654Z,64.50
2018-03-17T20:21:53.852Z,64.70
2018-03-17T20:24:21.154Z,64.90
2018-03-17T20:26:47.380Z,64.60
2018-03-17T20:29:13.615Z,64.90
2018-03-17T20:31:39.870Z,65.10
2018-03-17T20:34:06.853Z,65.10
2018-03-17T20:36:33.056Z,65.00
2018-03-17T20:38:59.273Z,65.70
2018-03-17T20:41:25.509Z,65.00
2018-03-17T20:43:51.820Z,64.70
2018-03-17T20:46:18.810Z,64.70
2018-03-17T20:48:45.020Z,64.60
2018-03-17T20:51:11.291Z,64.30
2018-03-17T20:53:37.517Z,64.60
2018-03-17T20:56:03.766Z,65.00
2018-03-17T20:58:30.995Z,65.00
2018-03-17T21:00:57.213Z,64.90
2018-03-17T21:03:23.411Z,65.10
2018-03-17T21:05:49.592Z,65.80
2018-03-17T21:08:15.869Z,65.70
2018-03-17T21:10:42.179Z,65.60
2018-03-17T21:13:08.417Z,66.60
2018-03-17T21:15:34.604Z,66.70
2018-03-17T21:18:00.815Z,66.80
2018-03-17T21:20:27.077Z,67.50
2018-03-17T21:22:54.018Z,67.60
2018-03-17T21:25:20.984Z,67.80
2018-03-17T21:27:47.255Z,67.70
2018-03-17T21:30:13.450Z,67.90
2018-03-17T21:32:39.692Z,67.50
2018-03-17T21:35:05.935Z,67.60
2018-03-17T21:37:32.125Z,68.50
2018-03-17T21:39:59.377Z,67.70
2018-03-17T21:42:27.042Z,67.90
2018-03-17T21:44:54.087Z,68.70
2018-03-17T21:47:20.339Z,68.60
2018-03-17T21:49:46.572Z,68.90
2018-03-17T21:52:12.816Z,69.00
2018-03-17T21:54:39.017Z,69.40
2018-03-17T21:57:05.270Z,69.70
2018-03-17T21:59:31.482Z,70.10
2018-03-17T22:01:57.733Z,70.50
2018-03-17T22:04:23.972Z,71.20
2018-03-17T22:09:48.943Z,72.00
2018-03-17T22:12:15.424Z,72.40
2018-03-17T22:14:41.652Z,72.60
2018-03-17T22:17:07.844Z,72.70
2018-03-17T22:19:34.085Z,73.30
2018-03-17T22:22:01.080Z,73.40
2018-03-17T22:24:27.261Z,73.40
2018-03-17T22:26:54.489Z,74.10
2018-03-17T22:29:20.671Z,73.90
2018-03-17T22:31:50.371Z,73.90
2018-03-17T22:34:17.313Z,74.30
2018-03-17T22:36:43.550Z,74.20
2018-03-17T22:39:09.753Z,74.10
2018-03-17T22:41:36.706Z,73.80
2018-03-17T22:44:02.986Z,74.60
2018-03-17T22:46:29.213Z,73.90
2018-03-17T23:28:45.037Z,75.00
2018-03-17T23:31:11.275Z,74.40
2018-03-17T23:33:37.480Z,75.10
2018-03-17T23:36:03.775Z,75.10
2018-03-17T23:38:29.990Z,75.10
2018-03-17T23:40:56.208Z,74.70
2018-03-17T23:43:22.454Z,74.50
2018-03-17T23:45:48.676Z,74.30
2018-03-17T23:48:14.927Z,74.30
2018-03-17T23:50:41.901Z,74.20
2018-03-17T23:53:08.128Z,74.20
2018-03-17T23:55:34.424Z,74.50
2018-03-17T23:58:01.378Z,74.60
